sensor_id;sensor_type;location;lat;lon;timestamp;P1;durP1;ratioP1;P2;durP2;ratioP2
23730;SDS011;12046;44.702;10.622;2022-12-07T00:03:36;66.93;;;44.22;;
23730;SDS011;12046;44.702;10.622;2022-12-07T00:06:04;67.63;;;45.17;;
23730;SDS011;12046;44.702;10.622;2022-12-07T00:08:31;59.05;;;41.90;;
23730;SDS011;12046;44.702;10.622;2022-12-07T00:11:08;56.80;;;41.38;;
23730;SDS011;12046;44.702;10.622;2022-12-07T00:13:37;61.50;;;45.10;;
23730;SDS011;12046;44.702;10.622;2022-12-07T00:16:04;58.47;;;41.60;;
23730;SDS011;12046;44.702;10.622;2022-12-07T00:18:32;63.78;;;47.00;;
23730;SDS011;12046;44.702;10.622;2022-12-07T00:21:03;55.53;;;40.30;;
23730;SDS011;12046;44.702;10.622;2022-12-07T00:23:35;54.40;;;42.13;;
23730;SDS011;12046;44.702;10.622;2022-12-07T00:28:49;59.25;;;41.92;;
23730;SDS011;12046;44.702;10.622;2022-12-07T00:31:17;52.47;;;39.13;;
23730;SDS011;12046;44.702;10.622;2022-12-07T00:33:44;58.55;;;41.00;;
23730;SDS011;12046;44.702;10.622;2022-12-07T00:36:12;56.03;;;41.67;;
23730;SDS011;12046;44.702;10.622;2022-12-07T00:38:40;56.60;;;38.90;;
23730;SDS011;12046;44.702;10.622;2022-12-07T00:41:11;50.92;;;37.47;;
23730;SDS011;12046;44.702;10.622;2022-12-07T00:43:37;58.80;;;41.72;;
23730;SDS011;12046;44.702;10.622;2022-12-07T00:46:04;49.67;;;36.30;;
23730;SDS011;12046;44.702;10.622;2022-12-07T00:48:30;45.90;;;35.47;;
23730;SDS011;12046;44.702;10.622;2022-12-07T00:50:57;44.78;;;32.63;;
23730;SDS011;12046;44.702;10.622;2022-12-07T00:53:24;48.83;;;39.08;;
23730;SDS011;12046;44.702;10.622;2022-12-07T00:55:50;50.35;;;38.60;;
23730;SDS011;12046;44.702;10.622;2022-12-07T00:58:18;45.42;;;34.67;;
23730;SDS011;12046;44.702;10.622;2022-12-07T01:00:44;39.47;;;33.35;;
23730;SDS011;12046;44.702;10.622;2022-12-07T01:03:11;40.88;;;32.92;;
23730;SDS011;12046;44.702;10.622;2022-12-07T01:05:38;41.08;;;30.58;;
23730;SDS011;12046;44.702;10.622;2022-12-07T01:08:05;40.50;;;32.10;;
23730;SDS011;12046;44.702;10.622;2022-12-07T01:10:31;34.85;;;29.25;;
23730;SDS011;12046;44.702;10.622;2022-12-07T01:12:58;34.28;;;27.15;;
23730;SDS011;12046;44.702;10.622;2022-12-07T01:15:25;33.97;;;27.50;;
23730;SDS011;12046;44.702;10.622;2022-12-07T01:17:51;32.40;;;26.08;;
23730;SDS011;12046;44.702;10.622;2022-12-07T01:20:17;33.85;;;29.35;;
23730;SDS011;12046;44.702;10.622;2022-12-07T01:22:43;28.67;;;24.92;;
23730;SDS011;12046;44.702;10.622;2022-12-07T01:25:10;27.50;;;23.15;;
23730;SDS011;12046;44.702;10.622;2022-12-07T01:27:36;28.00;;;23.27;;
23730;SDS011;12046;44.702;10.622;2022-12-07T01:30:03;26.58;;;23.60;;
23730;SDS011;12046;44.702;10.622;2022-12-07T01:32:32;29.25;;;25.33;;
23730;SDS011;12046;44.702;10.622;2022-12-07T01:34:59;26.15;;;22.65;;
23730;SDS011;12046;44.702;10.622;2022-12-07T01:37:25;27.40;;;23.42;;
23730;SDS011;12046;44.702;10.622;2022-12-07T01:39:51;25.73;;;22.90;;
23730;SDS011;12046;44.702;10.622;2022-12-07T01:42:17;26.83;;;22.88;;
23730;SDS011;12046;44.702;10.622;2022-12-07T01:47:51;25.90;;;21.75;;
23730;SDS011;12046;44.702;10.622;2022-12-07T01:50:20;27.58;;;23.90;;
23730;SDS011;12046;44.702;10.622;2022-12-07T01:52:50;29.50;;;25.65;;
23730;SDS011;12046;44.702;10.622;2022-12-07T01:55:17;25.45;;;21.65;;
23730;SDS011;12046;44.702;10.622;2022-12-07T01:57:44;26.33;;;23.35;;
23730;SDS011;12046;44.702;10.622;2022-12-07T02:00:13;28.65;;;22.52;;
23730;SDS011;12046;44.702;10.622;2022-12-07T02:05:20;25.92;;;21.75;;
23730;SDS011;12046;44.702;10.622;2022-12-07T02:07:48;26.52;;;23.40;;
23730;SDS011;12046;44.702;10.622;2022-12-07T02:10:20;32.90;;;27.85;;
23730;SDS011;12046;44.702;10.622;2022-12-07T02:12:55;25.58;;;20.77;;
23730;SDS011;12046;44.702;10.622;2022-12-07T02:15:34;27.13;;;22.40;;
23730;SDS011;12046;44.702;10.622;2022-12-07T02:18:07;27.35;;;22.73;;
23730;SDS011;12046;44.702;10.622;2022-12-07T02:28:51;27.08;;;23.92;;
23730;SDS011;12046;44.702;10.622;2022-12-07T02:31:38;27.60;;;21.60;;
23730;SDS011;12046;44.702;10.622;2022-12-07T02:34:26;27.15;;;24.00;;
23730;SDS011;12046;44.702;10.622;2022-12-07T02:37:34;29.08;;;25.55;;
23730;SDS011;12046;44.702;10.622;2022-12-07T02:40:24;27.48;;;23.95;;
23730;SDS011;12046;44.702;10.622;2022-12-07T02:43:19;27.48;;;22.42;;
23730;SDS011;12046;44.702;10.622;2022-12-07T02:45:50;28.15;;;25.00;;
23730;SDS011;12046;44.702;10.622;2022-12-07T02:48:19;28.42;;;22.25;;
23730;SDS011;12046;44.702;10.622;2022-12-07T02:50:50;23.90;;;20.63;;
23730;SDS011;12046;44.702;10.622;2022-12-07T03:05:32;20.88;;;18.38;;
23730;SDS011;12046;44.702;10.622;2022-12-07T03:13:27;21.55;;;18.23;;
23730;SDS011;12046;44.702;10.622;2022-12-07T03:16:15;21.67;;;18.13;;
23730;SDS011;12046;44.702;10.622;2022-12-07T03:18:53;20.80;;;18.17;;
23730;SDS011;12046;44.702;10.622;2022-12-07T03:21:23;20.30;;;18.05;;
23730;SDS011;12046;44.702;10.622;2022-12-07T03:23:54;19.88;;;17.38;;
23730;SDS011;12046;44.702;10.622;2022-12-07T03:26:24;17.88;;;15.90;;
23730;SDS011;12046;44.702;10.622;2022-12-07T03:28:58;18.05;;;16.15;;
23730;SDS011;12046;44.702;10.622;2022-12-07T03:31:31;21.70;;;19.38;;
23730;SDS011;12046;44.702;10.622;2022-12-07T03:37:05;22.95;;;20.45;;
23730;SDS011;12046;44.702;10.622;2022-12-07T03:39:39;19.67;;;17.45;;
23730;SDS011;12046;44.702;10.622;2022-12-07T03:42:12;22.20;;;18.27;;
23730;SDS011;12046;44.702;10.622;2022-12-07T03:44:38;23.15;;;17.50;;
23730;SDS011;12046;44.702;10.622;2022-12-07T03:47:12;24.42;;;20.27;;
23730;SDS011;12046;44.702;10.622;2022-12-07T03:49:54;19.98;;;16.95;;
23730;SDS011;12046;44.702;10.622;2022-12-07T03:52:25;21.02;;;17.52;;
23730;SDS011;12046;44.702;10.622;2022-12-07T03:58:07;21.40;;;18.27;;
23730;SDS011;12046;44.702;10.622;2022-12-07T04:00:37;21.80;;;17.45;;
23730;SDS011;12046;44.702;10.622;2022-12-07T04:03:03;19.65;;;16.38;;
23730;SDS011;12046;44.702;10.622;2022-12-07T04:05:29;19.52;;;16.63;;
23730;SDS011;12046;44.702;10.622;2022-12-07T04:07:55;19.85;;;15.65;;
23730;SDS011;12046;44.702;10.622;2022-12-07T04:10:21;23.60;;;18.75;;
23730;SDS011;12046;44.702;10.622;2022-12-07T04:12:47;20.60;;;17.33;;
23730;SDS011;12046;44.702;10.622;2022-12-07T04:15:13;18.33;;;16.33;;
23730;SDS011;12046;44.702;10.622;2022-12-07T04:17:39;18.40;;;16.38;;
23730;SDS011;12046;44.702;10.622;2022-12-07T04:20:05;20.55;;;17.08;;
23730;SDS011;12046;44.702;10.622;2022-12-07T04:22:32;19.23;;;15.23;;
23730;SDS011;12046;44.702;10.622;2022-12-07T04:24:58;17.35;;;14.50;;
23730;SDS011;12046;44.702;10.622;2022-12-07T04:27:24;18.02;;;16.13;;
23730;SDS011;12046;44.702;10.622;2022-12-07T04:29:50;17.60;;;14.82;;
23730;SDS011;12046;44.702;10.622;2022-12-07T04:32:16;16.77;;;14.98;;
23730;SDS011;12046;44.702;10.622;2022-12-07T04:34:42;17.08;;;15.05;;
23730;SDS011;12046;44.702;10.622;2022-12-07T04:37:08;17.02;;;14.50;;
23730;SDS011;12046;44.702;10.622;2022-12-07T04:39:34;17.40;;;15.48;;
23730;SDS011;12046;44.702;10.622;2022-12-07T04:42:00;18.63;;;15.18;;
23730;SDS011;12046;44.702;10.622;2022-12-07T04:44:26;17.33;;;15.50;;
23730;SDS011;12046;44.702;10.622;2022-12-07T04:46:54;19.65;;;16.05;;
23730;SDS011;12046;44.702;10.622;2022-12-07T04:49:20;16.65;;;14.60;;
23730;SDS011;12046;44.702;10.622;2022-12-07T04:51:46;16.17;;;14.43;;
23730;SDS011;12046;44.702;10.622;2022-12-07T04:54:13;18.98;;;16.90;;
23730;SDS011;12046;44.702;10.622;2022-12-07T04:56:40;18.02;;;16.15;;
23730;SDS011;12046;44.702;10.622;2022-12-07T04:59:06;19.60;;;16.08;;
23730;SDS011;12046;44.702;10.622;2022-12-07T05:01:33;19.05;;;15.55;;
23730;SDS011;12046;44.702;10.622;2022-12-07T05:03:59;20.17;;;16.65;;
23730;SDS011;12046;44.702;10.622;2022-12-07T05:06:25;18.25;;;16.25;;
23730;SDS011;12046;44.702;10.622;2022-12-07T05:08:51;18.63;;;16.73;;
23730;SDS011;12046;44.702;10.622;2022-12-07T05:11:18;20.70;;;16.67;;
23730;SDS011;12046;44.702;10.622;2022-12-07T05:14:03;21.08;;;18.77;;
23730;SDS011;12046;44.702;10.622;2022-12-07T05:16:31;16.38;;;14.63;;
23730;SDS011;12046;44.702;10.622;2022-12-07T05:18:57;18.30;;;16.42;;
23730;SDS011;12046;44.702;10.622;2022-12-07T05:21:24;19.15;;;15.90;;
23730;SDS011;12046;44.702;10.622;2022-12-07T05:23:50;19.52;;;16.55;;
23730;SDS011;12046;44.702;10.622;2022-12-07T05:26:16;20.33;;;16.15;;
23730;SDS011;12046;44.702;10.622;2022-12-07T05:28:42;20.05;;;15.98;;
23730;SDS011;12046;44.702;10.622;2022-12-07T05:31:08;16.90;;;15.00;;
23730;SDS011;12046;44.702;10.622;2022-12-07T05:33:34;18.88;;;15.38;;
23730;SDS011;12046;44.702;10.622;2022-12-07T05:36:00;17.42;;;15.45;;
23730;SDS011;12046;44.702;10.622;2022-12-07T05:38:32;19.13;;;16.00;;
23730;SDS011;12046;44.702;10.622;2022-12-07T05:41:02;18.30;;;16.13;;
23730;SDS011;12046;44.702;10.622;2022-12-07T05:43:29;18.77;;;15.43;;
23730;SDS011;12046;44.702;10.622;2022-12-07T05:45:56;19.42;;;17.20;;
23730;SDS011;12046;44.702;10.622;2022-12-07T05:48:23;18.35;;;16.35;;
23730;SDS011;12046;44.702;10.622;2022-12-07T05:50:49;18.92;;;15.95;;
23730;SDS011;12046;44.702;10.622;2022-12-07T05:53:16;20.52;;;16.75;;
23730;SDS011;12046;44.702;10.622;2022-12-07T05:55:42;21.17;;;17.90;;
23730;SDS011;12046;44.702;10.622;2022-12-07T05:58:09;20.65;;;16.48;;
23730;SDS011;12046;44.702;10.622;2022-12-07T06:00:56;22.08;;;17.48;;
23730;SDS011;12046;44.702;10.622;2022-12-07T06:03:22;20.42;;;17.42;;
23730;SDS011;12046;44.702;10.622;2022-12-07T06:05:48;20.20;;;16.65;;
23730;SDS011;12046;44.702;10.622;2022-12-07T06:08:14;21.48;;;17.67;;
23730;SDS011;12046;44.702;10.622;2022-12-07T06:10:41;22.65;;;18.58;;
23730;SDS011;12046;44.702;10.622;2022-12-07T06:13:07;20.63;;;18.08;;
23730;SDS011;12046;44.702;10.622;2022-12-07T06:15:37;19.63;;;15.65;;
23730;SDS011;12046;44.702;10.622;2022-12-07T06:18:03;18.58;;;15.93;;
23730;SDS011;12046;44.702;10.622;2022-12-07T06:20:29;21.92;;;16.88;;
23730;SDS011;12046;44.702;10.622;2022-12-07T06:22:55;21.85;;;16.40;;
23730;SDS011;12046;44.702;10.622;2022-12-07T06:25:21;19.05;;;15.75;;
23730;SDS011;12046;44.702;10.622;2022-12-07T06:27:47;19.27;;;17.27;;
23730;SDS011;12046;44.702;10.622;2022-12-07T06:30:13;24.25;;;19.38;;
23730;SDS011;12046;44.702;10.622;2022-12-07T06:32:39;22.25;;;19.60;;
23730;SDS011;12046;44.702;10.622;2022-12-07T06:35:05;23.85;;;18.50;;
23730;SDS011;12046;44.702;10.622;2022-12-07T06:37:31;21.40;;;19.10;;
23730;SDS011;12046;44.702;10.622;2022-12-07T06:39:57;21.35;;;16.95;;
23730;SDS011;12046;44.702;10.622;2022-12-07T06:42:23;24.77;;;20.00;;
23730;SDS011;12046;44.702;10.622;2022-12-07T06:44:49;21.35;;;17.50;;
23730;SDS011;12046;44.702;10.622;2022-12-07T06:47:15;23.70;;;17.92;;
23730;SDS011;12046;44.702;10.622;2022-12-07T06:49:41;20.33;;;17.92;;
23730;SDS011;12046;44.702;10.622;2022-12-07T06:52:07;23.13;;;17.70;;
23730;SDS011;12046;44.702;10.622;2022-12-07T06:54:33;21.80;;;17.08;;
23730;SDS011;12046;44.702;10.622;2022-12-07T06:56:59;19.58;;;17.27;;
23730;SDS011;12046;44.702;10.622;2022-12-07T06:59:25;23.98;;;18.20;;
23730;SDS011;12046;44.702;10.622;2022-12-07T07:01:51;20.65;;;17.63;;
23730;SDS011;12046;44.702;10.622;2022-12-07T07:04:17;22.80;;;18.52;;
23730;SDS011;12046;44.702;10.622;2022-12-07T07:06:43;22.25;;;18.75;;
23730;SDS011;12046;44.702;10.622;2022-12-07T07:09:09;22.05;;;18.02;;
23730;SDS011;12046;44.702;10.622;2022-12-07T07:11:35;22.90;;;19.50;;
23730;SDS011;12046;44.702;10.622;2022-12-07T07:14:01;21.00;;;17.73;;
23730;SDS011;12046;44.702;10.622;2022-12-07T07:16:30;23.40;;;19.73;;
23730;SDS011;12046;44.702;10.622;2022-12-07T07:18:56;21.38;;;17.88;;
23730;SDS011;12046;44.702;10.622;2022-12-07T07:21:22;21.45;;;16.38;;
23730;SDS011;12046;44.702;10.622;2022-12-07T07:23:48;21.40;;;15.88;;
23730;SDS011;12046;44.702;10.622;2022-12-07T07:26:14;21.80;;;16.00;;
23730;SDS011;12046;44.702;10.622;2022-12-07T07:28:40;19.45;;;16.52;;
23730;SDS011;12046;44.702;10.622;2022-12-07T07:31:06;21.27;;;17.65;;
23730;SDS011;12046;44.702;10.622;2022-12-07T07:33:32;24.73;;;17.77;;
23730;SDS011;12046;44.702;10.622;2022-12-07T07:35:58;21.95;;;18.55;;
23730;SDS011;12046;44.702;10.622;2022-12-07T07:38:24;21.83;;;18.23;;
23730;SDS011;12046;44.702;10.622;2022-12-07T07:40:50;23.88;;;18.98;;
23730;SDS011;12046;44.702;10.622;2022-12-07T07:43:16;22.55;;;18.60;;
23730;SDS011;12046;44.702;10.622;2022-12-07T07:45:42;26.10;;;20.60;;
23730;SDS011;12046;44.702;10.622;2022-12-07T07:48:09;26.35;;;22.88;;
23730;SDS011;12046;44.702;10.622;2022-12-07T07:50:35;26.75;;;23.77;;
23730;SDS011;12046;44.702;10.622;2022-12-07T07:53:01;27.80;;;23.85;;
23730;SDS011;12046;44.702;10.622;2022-12-07T07:55:27;28.40;;;23.00;;
23730;SDS011;12046;44.702;10.622;2022-12-07T07:57:53;27.90;;;23.63;;
23730;SDS011;12046;44.702;10.622;2022-12-07T08:00:19;33.83;;;25.42;;
23730;SDS011;12046;44.702;10.622;2022-12-07T08:02:46;31.95;;;25.23;;
23730;SDS011;12046;44.702;10.622;2022-12-07T08:05:12;29.58;;;25.02;;
23730;SDS011;12046;44.702;10.622;2022-12-07T08:07:39;30.13;;;25.67;;
23730;SDS011;12046;44.702;10.622;2022-12-07T08:10:05;32.33;;;27.30;;
23730;SDS011;12046;44.702;10.622;2022-12-07T08:12:35;33.72;;;29.75;;
23730;SDS011;12046;44.702;10.622;2022-12-07T08:15:03;34.63;;;29.52;;
23730;SDS011;12046;44.702;10.622;2022-12-07T08:17:29;32.80;;;28.95;;
23730;SDS011;12046;44.702;10.622;2022-12-07T08:19:55;34.00;;;28.83;;
23730;SDS011;12046;44.702;10.622;2022-12-07T08:22:21;34.15;;;29.17;;
23730;SDS011;12046;44.702;10.622;2022-12-07T08:24:47;37.90;;;31.77;;
23730;SDS011;12046;44.702;10.622;2022-12-07T08:27:13;38.40;;;31.13;;
23730;SDS011;12046;44.702;10.622;2022-12-07T08:29:39;41.67;;;34.45;;
23730;SDS011;12046;44.702;10.622;2022-12-07T08:32:05;39.33;;;34.05;;
23730;SDS011;12046;44.702;10.622;2022-12-07T08:34:32;38.63;;;31.75;;
23730;SDS011;12046;44.702;10.622;2022-12-07T08:37:02;39.15;;;32.95;;
23730;SDS011;12046;44.702;10.622;2022-12-07T08:39:28;37.70;;;32.08;;
23730;SDS011;12046;44.702;10.622;2022-12-07T08:41:54;40.05;;;32.65;;
23730;SDS011;12046;44.702;10.622;2022-12-07T08:44:20;36.95;;;30.67;;
23730;SDS011;12046;44.702;10.622;2022-12-07T08:46:51;35.72;;;30.60;;
23730;SDS011;12046;44.702;10.622;2022-12-07T08:49:24;39.33;;;31.55;;
23730;SDS011;12046;44.702;10.622;2022-12-07T08:51:56;37.40;;;32.92;;
23730;SDS011;12046;44.702;10.622;2022-12-07T08:54:25;35.55;;;31.70;;
23730;SDS011;12046;44.702;10.622;2022-12-07T08:56:55;36.78;;;32.78;;
23730;SDS011;12046;44.702;10.622;2022-12-07T08:59:24;33.25;;;28.10;;
23730;SDS011;12046;44.702;10.622;2022-12-07T09:01:52;32.85;;;27.60;;
23730;SDS011;12046;44.702;10.622;2022-12-07T09:04:21;35.65;;;30.65;;
23730;SDS011;12046;44.702;10.622;2022-12-07T09:06:47;31.13;;;27.83;;
23730;SDS011;12046;44.702;10.622;2022-12-07T09:09:16;31.35;;;27.98;;
23730;SDS011;12046;44.702;10.622;2022-12-07T09:11:42;30.63;;;25.55;;
23730;SDS011;12046;44.702;10.622;2022-12-07T09:14:13;28.52;;;24.15;;
23730;SDS011;12046;44.702;10.622;2022-12-07T09:16:41;30.83;;;26.60;;
23730;SDS011;12046;44.702;10.622;2022-12-07T09:19:07;28.15;;;24.35;;
23730;SDS011;12046;44.702;10.622;2022-12-07T09:21:36;27.25;;;24.35;;
23730;SDS011;12046;44.702;10.622;2022-12-07T09:24:02;29.35;;;26.27;;
23730;SDS011;12046;44.702;10.622;2022-12-07T09:26:28;30.02;;;25.48;;
23730;SDS011;12046;44.702;10.622;2022-12-07T09:28:55;27.73;;;24.80;;
23730;SDS011;12046;44.702;10.622;2022-12-07T09:31:21;27.52;;;24.48;;
23730;SDS011;12046;44.702;10.622;2022-12-07T09:33:47;26.95;;;24.10;;
23730;SDS011;12046;44.702;10.622;2022-12-07T09:36:25;26.95;;;24.13;;
23730;SDS011;12046;44.702;10.622;2022-12-07T09:38:52;26.70;;;23.80;;
23730;SDS011;12046;44.702;10.622;2022-12-07T09:41:19;27.02;;;24.23;;
23730;SDS011;12046;44.702;10.622;2022-12-07T09:43:46;34.40;;;25.92;;
23730;SDS011;12046;44.702;10.622;2022-12-07T09:46:13;27.88;;;24.80;;
23730;SDS011;12046;44.702;10.622;2022-12-07T09:48:42;29.83;;;26.65;;
23730;SDS011;12046;44.702;10.622;2022-12-07T09:51:30;29.88;;;25.75;;
23730;SDS011;12046;44.702;10.622;2022-12-07T09:53:56;28.80;;;25.85;;
23730;SDS011;12046;44.702;10.622;2022-12-07T09:56:23;27.02;;;24.13;;
23730;SDS011;12046;44.702;10.622;2022-12-07T09:58:51;28.52;;;25.48;;
23730;SDS011;12046;44.702;10.622;2022-12-07T10:01:24;29.25;;;23.88;;
23730;SDS011;12046;44.702;10.622;2022-12-07T10:04:09;27.27;;;24.15;;
23730;SDS011;12046;44.702;10.622;2022-12-07T10:06:42;27.73;;;24.92;;
23730;SDS011;12046;44.702;10.622;2022-12-07T10:09:09;27.67;;;24.80;;
23730;SDS011;12046;44.702;10.622;2022-12-07T10:11:57;27.00;;;24.10;;
23730;SDS011;12046;44.702;10.622;2022-12-07T10:14:37;27.52;;;24.55;;
23730;SDS011;12046;44.702;10.622;2022-12-07T10:17:28;27.75;;;24.80;;
23730;SDS011;12046;44.702;10.622;2022-12-07T10:20:17;26.15;;;23.55;;
23730;SDS011;12046;44.702;10.622;2022-12-07T10:23:05;29.90;;;25.02;;
23730;SDS011;12046;44.702;10.622;2022-12-07T10:25:38;26.60;;;24.00;;
23730;SDS011;12046;44.702;10.622;2022-12-07T10:38:47;27.73;;;24.92;;
23730;SDS011;12046;44.702;10.622;2022-12-07T10:41:16;28.63;;;25.67;;
23730;SDS011;12046;44.702;10.622;2022-12-07T10:43:48;26.95;;;24.20;;
23730;SDS011;12046;44.702;10.622;2022-12-07T10:46:22;28.92;;;24.42;;
23730;SDS011;12046;44.702;10.622;2022-12-07T10:48:57;27.95;;;25.00;;
23730;SDS011;12046;44.702;10.622;2022-12-07T10:51:41;29.20;;;24.58;;
23730;SDS011;12046;44.702;10.622;2022-12-07T11:00:19;30.00;;;26.73;;
23730;SDS011;12046;44.702;10.622;2022-12-07T11:11:41;28.13;;;25.45;;
23730;SDS011;12046;44.702;10.622;2022-12-07T11:14:25;23.73;;;21.33;;
23730;SDS011;12046;44.702;10.622;2022-12-07T11:20:05;25.52;;;23.02;;
23730;SDS011;12046;44.702;10.622;2022-12-07T11:23:11;24.30;;;21.95;;
23730;SDS011;12046;44.702;10.622;2022-12-07T11:36:49;24.60;;;21.92;;
23730;SDS011;12046;44.702;10.622;2022-12-07T11:41:44;25.13;;;22.73;;
23730;SDS011;12046;44.702;10.622;2022-12-07T11:53:33;24.85;;;22.55;;
23730;SDS011;12046;44.702;10.622;2022-12-07T11:58:46;23.02;;;20.98;;
23730;SDS011;12046;44.702;10.622;2022-12-07T12:03:45;25.33;;;22.90;;
23730;SDS011;12046;44.702;10.622;2022-12-07T12:06:13;26.60;;;23.83;;
23730;SDS011;12046;44.702;10.622;2022-12-07T12:08:41;26.90;;;22.90;;
23730;SDS011;12046;44.702;10.622;2022-12-07T12:11:19;26.80;;;22.63;;
23730;SDS011;12046;44.702;10.622;2022-12-07T12:16:40;25.42;;;22.80;;
23730;SDS011;12046;44.702;10.622;2022-12-07T12:22:09;23.90;;;19.50;;
23730;SDS011;12046;44.702;10.622;2022-12-07T12:24:44;21.35;;;19.30;;
23730;SDS011;12046;44.702;10.622;2022-12-07T12:27:37;27.25;;;20.48;;
23730;SDS011;12046;44.702;10.622;2022-12-07T12:30:05;24.30;;;22.10;;
23730;SDS011;12046;44.702;10.622;2022-12-07T12:32:48;24.75;;;22.55;;
23730;SDS011;12046;44.702;10.622;2022-12-07T12:37:53;26.38;;;23.98;;
23730;SDS011;12046;44.702;10.622;2022-12-07T12:42:47;25.20;;;22.70;;
23730;SDS011;12046;44.702;10.622;2022-12-07T12:47:54;26.58;;;23.98;;
23730;SDS011;12046;44.702;10.622;2022-12-07T12:53:51;23.45;;;21.20;;
23730;SDS011;12046;44.702;10.622;2022-12-07T12:59:32;24.75;;;22.65;;
23730;SDS011;12046;44.702;10.622;2022-12-07T13:15:43;20.63;;;18.70;;
23730;SDS011;12046;44.702;10.622;2022-12-07T13:23:37;18.15;;;16.55;;
23730;SDS011;12046;44.702;10.622;2022-12-07T13:26:14;19.58;;;17.88;;
23730;SDS011;12046;44.702;10.622;2022-12-07T13:28:45;18.50;;;16.67;;
23730;SDS011;12046;44.702;10.622;2022-12-07T13:33:41;19.13;;;17.23;;
23730;SDS011;12046;44.702;10.622;2022-12-07T13:36:12;19.15;;;17.45;;
23730;SDS011;12046;44.702;10.622;2022-12-07T13:38:51;19.23;;;17.52;;
23730;SDS011;12046;44.702;10.622;2022-12-07T13:41:23;20.38;;;18.58;;
23730;SDS011;12046;44.702;10.622;2022-12-07T13:43:58;19.70;;;17.90;;
23730;SDS011;12046;44.702;10.622;2022-12-07T13:49:46;19.23;;;17.45;;
23730;SDS011;12046;44.702;10.622;2022-12-07T13:54:48;19.75;;;18.05;;
23730;SDS011;12046;44.702;10.622;2022-12-07T13:57:25;18.63;;;16.88;;
23730;SDS011;12046;44.702;10.622;2022-12-07T13:59:53;20.27;;;18.48;;
23730;SDS011;12046;44.702;10.622;2022-12-07T14:02:54;20.90;;;18.90;;
23730;SDS011;12046;44.702;10.622;2022-12-07T14:05:25;21.10;;;19.05;;
23730;SDS011;12046;44.702;10.622;2022-12-07T14:08:03;22.98;;;20.77;;
23730;SDS011;12046;44.702;10.622;2022-12-07T14:10:30;21.70;;;19.67;;
23730;SDS011;12046;44.702;10.622;2022-12-07T14:12:58;22.85;;;20.45;;
23730;SDS011;12046;44.702;10.622;2022-12-07T14:15:30;23.35;;;21.05;;
23730;SDS011;12046;44.702;10.622;2022-12-07T14:17:59;21.55;;;19.25;;
23730;SDS011;12046;44.702;10.622;2022-12-07T14:20:36;22.30;;;20.02;;
23730;SDS011;12046;44.702;10.622;2022-12-07T14:23:05;23.17;;;20.42;;
23730;SDS011;12046;44.702;10.622;2022-12-07T14:25:46;23.45;;;19.45;;
23730;SDS011;12046;44.702;10.622;2022-12-07T14:28:29;24.08;;;21.58;;
23730;SDS011;12046;44.702;10.622;2022-12-07T14:31:00;26.17;;;23.38;;
23730;SDS011;12046;44.702;10.622;2022-12-07T14:33:26;23.23;;;20.77;;
23730;SDS011;12046;44.702;10.622;2022-12-07T14:35:53;23.65;;;20.95;;
23730;SDS011;12046;44.702;10.622;2022-12-07T14:38:21;22.65;;;20.10;;
23730;SDS011;12046;44.702;10.622;2022-12-07T14:40:47;21.58;;;19.42;;
23730;SDS011;12046;44.702;10.622;2022-12-07T14:43:15;24.42;;;22.00;;
23730;SDS011;12046;44.702;10.622;2022-12-07T14:45:42;24.55;;;22.17;;
23730;SDS011;12046;44.702;10.622;2022-12-07T14:48:12;23.10;;;20.92;;
23730;SDS011;12046;44.702;10.622;2022-12-07T14:50:45;23.42;;;20.67;;
23730;SDS011;12046;44.702;10.622;2022-12-07T14:53:17;25.25;;;21.95;;
23730;SDS011;12046;44.702;10.622;2022-12-07T14:55:50;25.40;;;22.42;;
23730;SDS011;12046;44.702;10.622;2022-12-07T14:58:16;25.05;;;22.50;;
23730;SDS011;12046;44.702;10.622;2022-12-07T15:00:43;24.85;;;22.20;;
23730;SDS011;12046;44.702;10.622;2022-12-07T15:03:10;25.00;;;21.55;;
23730;SDS011;12046;44.702;10.622;2022-12-07T15:05:38;27.55;;;22.40;;
23730;SDS011;12046;44.702;10.622;2022-12-07T15:08:05;27.10;;;22.52;;
23730;SDS011;12046;44.702;10.622;2022-12-07T15:10:33;25.80;;;22.38;;
23730;SDS011;12046;44.702;10.622;2022-12-07T15:12:59;26.65;;;22.10;;
23730;SDS011;12046;44.702;10.622;2022-12-07T15:15:49;27.65;;;21.80;;
23730;SDS011;12046;44.702;10.622;2022-12-07T15:18:17;29.05;;;23.70;;
23730;SDS011;12046;44.702;10.622;2022-12-07T15:20:44;32.08;;;25.55;;
23730;SDS011;12046;44.702;10.622;2022-12-07T15:23:10;28.75;;;23.42;;
23730;SDS011;12046;44.702;10.622;2022-12-07T15:25:45;31.65;;;24.48;;
23730;SDS011;12046;44.702;10.622;2022-12-07T15:28:12;34.30;;;27.13;;
23730;SDS011;12046;44.702;10.622;2022-12-07T15:30:39;36.70;;;29.40;;
23730;SDS011;12046;44.702;10.622;2022-12-07T15:33:07;35.45;;;25.92;;
23730;SDS011;12046;44.702;10.622;2022-12-07T15:35:38;34.53;;;26.17;;
23730;SDS011;12046;44.702;10.622;2022-12-07T15:38:05;37.70;;;29.25;;
23730;SDS011;12046;44.702;10.622;2022-12-07T15:40:31;41.50;;;29.15;;
23730;SDS011;12046;44.702;10.622;2022-12-07T15:42:57;43.90;;;31.83;;
23730;SDS011;12046;44.702;10.622;2022-12-07T15:45:23;40.85;;;29.67;;
23730;SDS011;12046;44.702;10.622;2022-12-07T15:47:50;43.47;;;30.85;;
23730;SDS011;12046;44.702;10.622;2022-12-07T15:50:16;44.08;;;30.50;;
23730;SDS011;12046;44.702;10.622;2022-12-07T15:52:42;41.08;;;30.90;;
23730;SDS011;12046;44.702;10.622;2022-12-07T15:55:09;42.90;;;31.05;;
23730;SDS011;12046;44.702;10.622;2022-12-07T15:57:36;38.78;;;26.52;;
23730;SDS011;12046;44.702;10.622;2022-12-07T16:00:04;43.38;;;32.40;;
23730;SDS011;12046;44.702;10.622;2022-12-07T16:02:31;47.20;;;35.08;;
23730;SDS011;12046;44.702;10.622;2022-12-07T16:04:57;39.30;;;28.83;;
23730;SDS011;12046;44.702;10.622;2022-12-07T16:07:23;41.47;;;31.10;;
23730;SDS011;12046;44.702;10.622;2022-12-07T16:09:49;44.83;;;31.33;;
23730;SDS011;12046;44.702;10.622;2022-12-07T16:12:16;44.17;;;32.25;;
23730;SDS011;12046;44.702;10.622;2022-12-07T16:14:42;46.50;;;30.40;;
23730;SDS011;12046;44.702;10.622;2022-12-07T16:17:08;47.25;;;32.20;;
23730;SDS011;12046;44.702;10.622;2022-12-07T16:19:35;51.10;;;33.35;;
23730;SDS011;12046;44.702;10.622;2022-12-07T16:22:02;42.72;;;29.38;;
23730;SDS011;12046;44.702;10.622;2022-12-07T16:24:29;35.60;;;25.27;;
23730;SDS011;12046;44.702;10.622;2022-12-07T16:26:56;34.25;;;25.20;;
23730;SDS011;12046;44.702;10.622;2022-12-07T16:29:22;38.05;;;27.25;;
23730;SDS011;12046;44.702;10.622;2022-12-07T16:31:49;37.53;;;28.00;;
23730;SDS011;12046;44.702;10.622;2022-12-07T16:34:16;42.15;;;29.38;;
23730;SDS011;12046;44.702;10.622;2022-12-07T16:36:43;35.55;;;25.15;;
23730;SDS011;12046;44.702;10.622;2022-12-07T16:39:09;36.35;;;26.63;;
23730;SDS011;12046;44.702;10.622;2022-12-07T16:41:35;38.53;;;29.10;;
23730;SDS011;12046;44.702;10.622;2022-12-07T16:44:03;39.97;;;30.30;;
23730;SDS011;12046;44.702;10.622;2022-12-07T16:46:33;36.22;;;27.83;;
23730;SDS011;12046;44.702;10.622;2022-12-07T16:49:01;45.10;;;31.83;;